sensor_id;sensor_type;location;lat;lon;timestamp;pressure;altitude;pressure_sealevel;temperature;humidity
30819;BME280;17546;42.674;23.284;2024-01-25T00:00:54;95286.41;;;10.67;40.96
30819;BME280;17546;42.674;23.284;2024-01-25T00:03:19;95245.56;;;10.62;40.72
30819;BME280;17546;42.674;23.284;2024-01-25T00:05:44;95240.28;;;10.64;40.58
30819;BME280;17546;42.674;23.284;2024-01-25T00:08:10;95243.47;;;10.57;40.73
30819;BME280;17546;42.674;23.284;2024-01-25T00:10:35;95268.97;;;10.81;40.35
30819;BME280;17546;42.674;23.284;2024-01-25T00:13:01;95248.75;;;10.75;40.74
30819;BME280;17546;42.674;23.284;2024-01-25T00:15:27;95210.66;;;10.49;40.42
30819;BME280;17546;42.674;23.284;2024-01-25T00:17:52;95214.78;;;10.80;40.08
30819;BME280;17546;42.674;23.284;2024-01-25T00:20:18;95181.84;;;10.62;40.38
30819;BME280;17546;42.674;23.284;2024-01-25T00:22:43;95157.59;;;10.36;41.05
30819;BME280;17546;42.674;23.284;2024-01-25T00:25:09;95179.50;;;10.54;40.83
30819;BME280;17546;42.674;23.284;2024-01-25T00:27:34;95168.34;;;10.49;41.00
30819;BME280;17546;42.674;23.284;2024-01-25T00:30:00;95172.97;;;10.58;41.13
30819;BME280;17546;42.674;23.284;2024-01-25T00:32:26;95161.34;;;10.33;41.10
30819;BME280;17546;42.674;23.284;2024-01-25T00:34:51;95113.00;;;9.93;41.86
30819;BME280;17546;42.674;23.284;2024-01-25T00:37:17;95162.16;;;10.19;41.74
30819;BME280;17546;42.674;23.284;2024-01-25T00:39:43;95170.97;;;9.82;42.54
30819;BME280;17546;42.674;23.284;2024-01-25T00:42:12;95182.00;;;9.97;42.19
30819;BME280;17546;42.674;23.284;2024-01-25T00:44:40;95146.09;;;10.02;41.31
30819;BME280;17546;42.674;23.284;2024-01-25T00:47:05;95178.25;;;10.35;41.39
30819;BME280;17546;42.674;23.284;2024-01-25T00:49:31;95181.78;;;10.56;41.20
30819;BME280;17546;42.674;23.284;2024-01-25T00:52:02;95137.88;;;10.49;41.05
30819;BME280;17546;42.674;23.284;2024-01-25T00:54:28;95162.91;;;10.81;40.90
30819;BME280;17546;42.674;23.284;2024-01-25T00:56:54;95166.16;;;10.79;40.04
30819;BME280;17546;42.674;23.284;2024-01-25T00:59:20;95167.06;;;10.70;40.04
30819;BME280;17546;42.674;23.284;2024-01-25T01:01:47;95133.69;;;10.18;40.61
30819;BME280;17546;42.674;23.284;2024-01-25T01:04:13;95129.91;;;10.36;40.48
30819;BME280;17546;42.674;23.284;2024-01-25T01:06:39;95183.78;;;10.35;41.07
30819;BME280;17546;42.674;23.284;2024-01-25T01:09:05;95172.03;;;10.05;41.58
30819;BME280;17546;42.674;23.284;2024-01-25T01:11:31;95171.88;;;10.49;40.50
30819;BME280;17546;42.674;23.284;2024-01-25T01:13:56;95173.53;;;10.62;40.43
30819;BME280;17546;42.674;23.284;2024-01-25T01:16:22;95131.38;;;10.52;40.41
30819;BME280;17546;42.674;23.284;2024-01-25T01:18:47;95120.00;;;10.50;40.18
30819;BME280;17546;42.674;23.284;2024-01-25T01:21:13;95147.13;;;10.66;40.74
30819;BME280;17546;42.674;23.284;2024-01-25T01:23:38;95082.94;;;10.27;40.58
30819;BME280;17546;42.674;23.284;2024-01-25T01:26:04;95120.50;;;10.74;40.51
30819;BME280;17546;42.674;23.284;2024-01-25T01:28:29;95103.88;;;10.74;40.39
30819;BME280;17546;42.674;23.284;2024-01-25T01:30:55;95081.81;;;10.60;39.94
30819;BME280;17546;42.674;23.284;2024-01-25T01:33:21;95122.41;;;10.89;39.84
30819;BME280;17546;42.674;23.284;2024-01-25T01:35:46;95071.06;;;10.00;40.40
30819;BME280;17546;42.674;23.284;2024-01-25T01:38:12;95098.13;;;10.31;40.15
30819;BME280;17546;42.674;23.284;2024-01-25T01:40:37;95042.47;;;10.29;39.58
30819;BME280;17546;42.674;23.284;2024-01-25T01:43:03;95098.66;;;10.82;39.32
30819;BME280;17546;42.674;23.284;2024-01-25T01:45:29;95067.88;;;10.48;39.58
30819;BME280;17546;42.674;23.284;2024-01-25T01:47:58;95060.19;;;10.38;40.60
30819;BME280;17546;42.674;23.284;2024-01-25T01:50:24;95048.56;;;10.33;40.84
30819;BME280;17546;42.674;23.284;2024-01-25T01:52:51;95083.56;;;10.83;40.80
30819;BME280;17546;42.674;23.284;2024-01-25T01:55:17;95059.34;;;10.78;40.52
30819;BME280;17546;42.674;23.284;2024-01-25T01:57:44;95025.50;;;11.00;40.11
30819;BME280;17546;42.674;23.284;2024-01-25T02:00:11;95087.22;;;11.27;39.36
30819;BME280;17546;42.674;23.284;2024-01-25T02:02:39;95051.63;;;11.25;38.90
30819;BME280;17546;42.674;23.284;2024-01-25T02:05:05;95071.78;;;11.57;38.90
30819;BME280;17546;42.674;23.284;2024-01-25T02:07:31;95047.22;;;11.45;38.93
30819;BME280;17546;42.674;23.284;2024-01-25T02:09:56;95065.75;;;12.13;38.29
30819;BME280;17546;42.674;23.284;2024-01-25T02:12:21;95032.28;;;11.79;38.96
30819;BME280;17546;42.674;23.284;2024-01-25T02:14:47;95023.94;;;11.74;39.27
30819;BME280;17546;42.674;23.284;2024-01-25T02:17:12;95073.97;;;12.56;38.69
30819;BME280;17546;42.674;23.284;2024-01-25T02:19:38;95056.25;;;12.37;39.14
30819;BME280;17546;42.674;23.284;2024-01-25T02:22:05;95070.34;;;12.28;39.22
30819;BME280;17546;42.674;23.284;2024-01-25T02:24:31;95070.91;;;12.43;39.08
30819;BME280;17546;42.674;23.284;2024-01-25T02:26:56;95079.94;;;12.27;40.03
30819;BME280;17546;42.674;23.284;2024-01-25T02:29:22;95065.88;;;12.47;39.12
30819;BME280;17546;42.674;23.284;2024-01-25T02:31:47;95074.41;;;11.78;39.85
30819;BME280;17546;42.674;23.284;2024-01-25T02:34:13;95058.09;;;11.91;40.21
30819;BME280;17546;42.674;23.284;2024-01-25T02:36:38;95051.97;;;12.42;39.10
30819;BME280;17546;42.674;23.284;2024-01-25T02:39:04;95039.31;;;12.40;38.84
30819;BME280;17546;42.674;23.284;2024-01-25T02:41:32;95025.75;;;11.40;40.04
30819;BME280;17546;42.674;23.284;2024-01-25T02:43:58;95078.59;;;11.99;39.82
30819;BME280;17546;42.674;23.284;2024-01-25T02:46:23;95054.44;;;12.17;39.16
30819;BME280;17546;42.674;23.284;2024-01-25T02:48:49;95059.53;;;12.35;39.12
30819;BME280;17546;42.674;23.284;2024-01-25T02:51:14;94993.28;;;12.06;38.92
30819;BME280;17546;42.674;23.284;2024-01-25T02:53:40;95044.03;;;12.06;39.43
30819;BME280;17546;42.674;23.284;2024-01-25T02:56:06;95054.94;;;12.27;39.06
30819;BME280;17546;42.674;23.284;2024-01-25T02:58:32;95063.47;;;12.12;38.88
30819;BME280;17546;42.674;23.284;2024-01-25T03:00:57;95059.72;;;12.20;38.77
30819;BME280;17546;42.674;23.284;2024-01-25T03:03:23;95025.16;;;11.24;40.95
30819;BME280;17546;42.674;23.284;2024-01-25T03:05:52;94998.63;;;11.12;42.89
30819;BME280;17546;42.674;23.284;2024-01-25T03:08:17;95072.06;;;11.65;43.20
30819;BME280;17546;42.674;23.284;2024-01-25T03:10:43;95051.19;;;11.81;42.75
30819;BME280;17546;42.674;23.284;2024-01-25T03:13:08;95031.72;;;11.64;43.15
30819;BME280;17546;42.674;23.284;2024-01-25T03:15:34;95029.31;;;11.89;42.69
30819;BME280;17546;42.674;23.284;2024-01-25T03:17:59;95056.44;;;12.16;42.74
30819;BME280;17546;42.674;23.284;2024-01-25T03:20:25;95049.38;;;12.21;41.97
30819;BME280;17546;42.674;23.284;2024-01-25T03:22:50;94998.59;;;12.09;42.17
30819;BME280;17546;42.674;23.284;2024-01-25T03:25:16;95034.25;;;12.33;42.20
30819;BME280;17546;42.674;23.284;2024-01-25T03:27:41;95050.44;;;12.35;42.63
30819;BME280;17546;42.674;23.284;2024-01-25T03:30:07;95035.19;;;12.08;42.95
30819;BME280;17546;42.674;23.284;2024-01-25T03:32:33;95032.44;;;12.13;42.92
30819;BME280;17546;42.674;23.284;2024-01-25T03:34:59;95034.16;;;12.05;42.90
30819;BME280;17546;42.674;23.284;2024-01-25T03:37:25;95026.19;;;12.35;42.27
30819;BME280;17546;42.674;23.284;2024-01-25T03:39:51;95029.50;;;12.56;41.87
30819;BME280;17546;42.674;23.284;2024-01-25T03:42:16;95012.81;;;12.45;41.58
30819;BME280;17546;42.674;23.284;2024-01-25T03:44:42;95008.78;;;12.35;41.58
30819;BME280;17546;42.674;23.284;2024-01-25T03:47:08;95004.41;;;12.11;41.93
30819;BME280;17546;42.674;23.284;2024-01-25T03:49:34;95019.84;;;12.24;41.61
30819;BME280;17546;42.674;23.284;2024-01-25T03:51:59;95032.56;;;12.75;40.84
30819;BME280;17546;42.674;23.284;2024-01-25T03:54:25;95017.63;;;12.56;40.85
30819;BME280;17546;42.674;23.284;2024-01-25T03:56:50;94968.88;;;12.60;40.27
30819;BME280;17546;42.674;23.284;2024-01-25T03:59:16;94960.03;;;12.39;40.62
30819;BME280;17546;42.674;23.284;2024-01-25T04:01:45;94971.41;;;12.58;40.25
30819;BME280;17546;42.674;23.284;2024-01-25T04:04:12;94963.06;;;12.53;40.32
30819;BME280;17546;42.674;23.284;2024-01-25T04:06:42;94970.91;;;12.49;40.18
30819;BME280;17546;42.674;23.284;2024-01-25T04:09:11;95001.44;;;12.54;40.57
30819;BME280;17546;42.674;23.284;2024-01-25T04:11:37;94977.47;;;12.51;40.38
30819;BME280;17546;42.674;23.284;2024-01-25T04:14:03;94993.66;;;12.87;39.99
30819;BME280;17546;42.674;23.284;2024-01-25T04:16:29;94989.34;;;12.63;40.15
30819;BME280;17546;42.674;23.284;2024-01-25T04:18:54;94998.94;;;12.51;40.29
30819;BME280;17546;42.674;23.284;2024-01-25T04:21:20;94953.72;;;12.84;39.42
30819;BME280;17546;42.674;23.284;2024-01-25T04:23:45;94989.34;;;13.02;39.44
30819;BME280;17546;42.674;23.284;2024-01-25T04:26:11;94963.56;;;12.51;39.90
30819;BME280;17546;42.674;23.284;2024-01-25T04:28:36;94993.41;;;13.01;39.27
30819;BME280;17546;42.674;23.284;2024-01-25T04:31:02;94990.09;;;12.97;39.43
30819;BME280;17546;42.674;23.284;2024-01-25T04:33:29;94987.56;;;13.22;38.81
30819;BME280;17546;42.674;23.284;2024-01-25T04:35:54;94984.78;;;13.05;38.97
30819;BME280;17546;42.674;23.284;2024-01-25T04:38:21;94983.03;;;12.51;39.79
30819;BME280;17546;42.674;23.284;2024-01-25T04:40:46;95001.44;;;12.26;40.17
30819;BME280;17546;42.674;23.284;2024-01-25T04:43:12;94996.91;;;12.51;39.86
30819;BME280;17546;42.674;23.284;2024-01-25T04:45:39;94998.88;;;12.23;39.89
30819;BME280;17546;42.674;23.284;2024-01-25T04:48:05;95009.22;;;12.16;39.72
30819;BME280;17546;42.674;23.284;2024-01-25T04:50:30;95040.41;;;12.77;39.33
30819;BME280;17546;42.674;23.284;2024-01-25T04:52:56;95005.25;;;12.74;38.67
30819;BME280;17546;42.674;23.284;2024-01-25T04:55:21;94996.91;;;12.46;38.89
30819;BME280;17546;42.674;23.284;2024-01-25T04:57:47;95016.59;;;12.42;39.03
30819;BME280;17546;42.674;23.284;2024-01-25T05:00:15;95058.28;;;12.48;38.97
30819;BME280;17546;42.674;23.284;2024-01-25T05:02:41;95025.47;;;11.37;40.54
30819;BME280;17546;42.674;23.284;2024-01-25T05:05:07;95047.78;;;11.17;41.06
30819;BME280;17546;42.674;23.284;2024-01-25T05:07:32;95051.81;;;10.84;41.64
30819;BME280;17546;42.674;23.284;2024-01-25T05:09:58;95042.25;;;11.17;41.05
30819;BME280;17546;42.674;23.284;2024-01-25T05:12:24;95049.84;;;10.90;41.83
30819;BME280;17546;42.674;23.284;2024-01-25T05:14:49;95062.25;;;10.95;41.13
30819;BME280;17546;42.674;23.284;2024-01-25T05:17:15;95069.72;;;10.83;41.42
30819;BME280;17546;42.674;23.284;2024-01-25T05:19:40;95042.25;;;10.85;41.21
30819;BME280;17546;42.674;23.284;2024-01-25T05:22:06;95085.47;;;11.29;40.52
30819;BME280;17546;42.674;23.284;2024-01-25T05:24:33;95056.09;;;11.17;40.04
30819;BME280;17546;42.674;23.284;2024-01-25T05:26:59;95080.13;;;11.63;39.63
30819;BME280;17546;42.674;23.284;2024-01-25T05:29:24;95087.97;;;12.13;39.01
30819;BME280;17546;42.674;23.284;2024-01-25T05:31:50;95083.00;;;11.80;39.27
30819;BME280;17546;42.674;23.284;2024-01-25T05:34:15;95080.59;;;11.56;39.45
30819;BME280;17546;42.674;23.284;2024-01-25T05:36:41;95090.03;;;11.75;39.34
30819;BME280;17546;42.674;23.284;2024-01-25T05:39:07;95065.47;;;12.06;38.63
30819;BME280;17546;42.674;23.284;2024-01-25T05:41:33;95084.31;;;11.90;38.59
30819;BME280;17546;42.674;23.284;2024-01-25T05:43:59;95099.53;;;11.95;38.93
30819;BME280;17546;42.674;23.284;2024-01-25T05:46:25;95105.47;;;12.36;38.05
30819;BME280;17546;42.674;23.284;2024-01-25T05:48:51;95095.53;;;12.07;38.57
30819;BME280;17546;42.674;23.284;2024-01-25T05:51:17;95087.81;;;11.79;38.84
30819;BME280;17546;42.674;23.284;2024-01-25T05:53:43;95076.34;;;11.66;39.27
30819;BME280;17546;42.674;23.284;2024-01-25T05:56:08;95119.31;;;11.76;39.66
30819;BME280;17546;42.674;23.284;2024-01-25T05:58:34;95087.88;;;11.91;38.75
30819;BME280;17546;42.674;23.284;2024-01-25T06:00:59;95095.78;;;11.66;39.24
30819;BME280;17546;42.674;23.284;2024-01-25T06:03:25;95071.25;;;11.53;38.84
30819;BME280;17546;42.674;23.284;2024-01-25T06:05:50;95105.75;;;11.47;39.73
30819;BME280;17546;42.674;23.284;2024-01-25T06:08:16;95136.09;;;11.56;39.91
30819;BME280;17546;42.674;23.284;2024-01-25T06:10:41;95138.50;;;12.23;38.90
30819;BME280;17546;42.674;23.284;2024-01-25T06:13:08;95107.09;;;12.00;38.57
30819;BME280;17546;42.674;23.284;2024-01-25T06:15:33;95096.56;;;11.35;39.61
30819;BME280;17546;42.674;23.284;2024-01-25T06:17:59;95149.78;;;12.63;38.28
30819;BME280;17546;42.674;23.284;2024-01-25T06:20:24;95146.09;;;11.79;39.49
30819;BME280;17546;42.674;23.284;2024-01-25T06:22:50;95112.16;;;12.02;38.81
30819;BME280;17546;42.674;23.284;2024-01-25T06:25:15;95102.63;;;12.08;38.67
30819;BME280;17546;42.674;23.284;2024-01-25T06:27:41;95143.09;;;12.32;38.64
30819;BME280;17546;42.674;23.284;2024-01-25T06:30:06;95079.22;;;11.77;39.06
30819;BME280;17546;42.674;23.284;2024-01-25T06:32:32;95147.41;;;11.90;39.42
30819;BME280;17546;42.674;23.284;2024-01-25T06:34:58;95154.63;;;12.13;38.90
30819;BME280;17546;42.674;23.284;2024-01-25T06:37:23;95115.56;;;11.85;39.07
30819;BME280;17546;42.674;23.284;2024-01-25T06:39:48;95123.34;;;12.18;38.91
30819;BME280;17546;42.674;23.284;2024-01-25T06:42:14;95158.94;;;12.80;38.36
30819;BME280;17546;42.674;23.284;2024-01-25T06:44:39;95142.47;;;12.71;38.15
30819;BME280;17546;42.674;23.284;2024-01-25T06:47:05;95126.25;;;12.47;37.85
30819;BME280;17546;42.674;23.284;2024-01-25T06:49:31;95161.16;;;12.10;39.17
30819;BME280;17546;42.674;23.284;2024-01-25T06:51:56;95140.34;;;12.43;38.69
30819;BME280;17546;42.674;23.284;2024-01-25T06:54:22;95150.81;;;12.71;38.41
30819;BME280;17546;42.674;23.284;2024-01-25T06:56:47;95158.97;;;12.26;39.17
30819;BME280;17546;42.674;23.284;2024-01-25T06:59:13;95161.16;;;12.05;39.41
30819;BME280;17546;42.674;23.284;2024-01-25T07:01:39;95118.75;;;12.10;38.63
30819;BME280;17546;42.674;23.284;2024-01-25T07:04:04;95140.72;;;11.70;39.59
30819;BME280;17546;42.674;23.284;2024-01-25T07:06:30;95181.63;;;12.61;38.64
30819;BME280;17546;42.674;23.284;2024-01-25T07:08:55;95166.81;;;12.22;39.21
30819;BME280;17546;42.674;23.284;2024-01-25T07:11:21;95173.16;;;12.39;38.86
30819;BME280;17546;42.674;23.284;2024-01-25T07:13:47;95133.38;;;12.05;39.23
30819;BME280;17546;42.674;23.284;2024-01-25T07:16:12;95148.34;;;12.18;39.07
30819;BME280;17546;42.674;23.284;2024-01-25T07:18:38;95103.91;;;12.18;38.81
30819;BME280;17546;42.674;23.284;2024-01-25T07:21:03;95136.50;;;12.24;38.83
30819;BME280;17546;42.674;23.284;2024-01-25T07:23:30;95131.97;;;12.32;38.79
30819;BME280;17546;42.674;23.284;2024-01-25T07:25:55;95130.59;;;11.67;39.61
30819;BME280;17546;42.674;23.284;2024-01-25T07:28:21;95137.75;;;11.79;39.50
30819;BME280;17546;42.674;23.284;2024-01-25T07:30:47;95120.38;;;11.85;39.58
30819;BME280;17546;42.674;23.284;2024-01-25T07:33:13;95133.97;;;11.83;39.42
30819;BME280;17546;42.674;23.284;2024-01-25T07:35:40;95112.00;;;11.79;39.34
30819;BME280;17546;42.674;23.284;2024-01-25T07:38:11;95123.38;;;11.81;39.35
30819;BME280;17546;42.674;23.284;2024-01-25T07:40:36;95096.25;;;11.59;39.46
30819;BME280;17546;42.674;23.284;2024-01-25T07:43:02;95145.81;;;12.15;39.02
30819;BME280;17546;42.674;23.284;2024-01-25T07:45:28;95141.00;;;12.15;38.87
30819;BME280;17546;42.674;23.284;2024-01-25T07:47:53;95145.63;;;11.87;39.34
30819;BME280;17546;42.674;23.284;2024-01-25T07:50:19;95134.66;;;11.72;39.35
30819;BME280;17546;42.674;23.284;2024-01-25T07:52:44;95109.00;;;11.45;39.20
30819;BME280;17546;42.674;23.284;2024-01-25T07:55:10;95111.97;;;11.36;39.31
30819;BME280;17546;42.674;23.284;2024-01-25T07:57:36;95121.47;;;11.93;38.77
30819;BME280;17546;42.674;23.284;2024-01-25T08:00:02;95139.41;;;12.03;38.68
30819;BME280;17546;42.674;23.284;2024-01-25T08:02:27;95141.66;;;11.99;38.63
30819;BME280;17546;42.674;23.284;2024-01-25T08:04:53;95177.59;;;12.08;38.71
30819;BME280;17546;42.674;23.284;2024-01-25T08:07:21;95158.44;;;12.16;38.64
30819;BME280;17546;42.674;23.284;2024-01-25T08:09:46;95168.94;;;12.49;38.12
30819;BME280;17546;42.674;23.284;2024-01-25T08:12:12;95167.06;;;12.24;38.29
30819;BME280;17546;42.674;23.284;2024-01-25T08:14:38;95144.16;;;11.91;38.62
30819;BME280;17546;42.674;23.284;2024-01-25T08:17:03;95142.94;;;12.52;37.74
30819;BME280;17546;42.674;23.284;2024-01-25T08:19:30;95133.63;;;12.67;37.61
30819;BME280;17546;42.674;23.284;2024-01-25T08:21:56;95112.78;;;11.85;37.92
30819;BME280;17546;42.674;23.284;2024-01-25T08:24:21;95104.06;;;11.98;37.63
30819;BME280;17546;42.674;23.284;2024-01-25T08:26:48;95144.94;;;11.60;38.46
30819;BME280;17546;42.674;23.284;2024-01-25T08:29:14;95115.81;;;11.44;38.54
30819;BME280;17546;42.674;23.284;2024-01-25T08:31:40;95134.44;;;12.18;37.54
30819;BME280;17546;42.674;23.284;2024-01-25T08:34:05;95150.00;;;12.53;37.25
30819;BME280;17546;42.674;23.284;2024-01-25T08:36:30;95105.69;;;11.78;37.99
30819;BME280;17546;42.674;23.284;2024-01-25T08:38:56;95091.34;;;11.86;37.81
30819;BME280;17546;42.674;23.284;2024-01-25T08:41:25;95163.06;;;12.30;37.58
30819;BME280;17546;42.674;23.284;2024-01-25T08:43:50;95172.66;;;12.35;37.36
30819;BME280;17546;42.674;23.284;2024-01-25T08:46:16;95169.06;;;12.23;37.85
30819;BME280;17546;42.674;23.284;2024-01-25T08:48:41;95173.03;;;12.59;37.23
30819;BME280;17546;42.674;23.284;2024-01-25T08:51:08;95161.38;;;12.01;37.77
30819;BME280;17546;42.674;23.284;2024-01-25T08:53:34;95152.28;;;12.01;38.04
30819;BME280;17546;42.674;23.284;2024-01-25T08:55:59;95157.50;;;12.30;37.36
30819;BME280;17546;42.674;23.284;2024-01-25T08:58:25;95125.91;;;11.85;37.65
30819;BME280;17546;42.674;23.284;2024-01-25T09:00:50;95184.19;;;12.16;37.80
30819;BME280;17546;42.674;23.284;2024-01-25T09:03:16;95130.66;;;11.73;37.93
30819;BME280;17546;42.674;23.284;2024-01-25T09:05:42;95193.41;;;12.39;37.62
30819;BME280;17546;42.674;23.284;2024-01-25T09:08:13;95188.75;;;12.19;37.89
30819;BME280;17546;42.674;23.284;2024-01-25T09:10:40;95185.94;;;12.74;36.93
30819;BME280;17546;42.674;23.284;2024-01-25T09:13:06;95178.94;;;12.95;36.73
30819;BME280;17546;42.674;23.284;2024-01-25T09:15:32;95170.09;;;12.97;36.63
30819;BME280;17546;42.674;23.284;2024-01-25T09:17:58;95188.34;;;13.15;36.71
30819;BME280;17546;42.674;23.284;2024-01-25T09:20:23;95132.44;;;13.07;36.65
30819;BME280;17546;42.674;23.284;2024-01-25T09:22:49;95165.75;;;12.85;36.84
30819;BME280;17546;42.674;23.284;2024-01-25T09:25:14;95125.56;;;12.80;36.41
30819;BME280;17546;42.674;23.284;2024-01-25T09:27:40;95143.50;;;12.73;36.88
30819;BME280;17546;42.674;23.284;2024-01-25T09:30:06;95133.38;;;12.59;36.95
30819;BME280;17546;42.674;23.284;2024-01-25T09:32:31;95163.78;;;12.96;36.94
30819;BME280;17546;42.674;23.284;2024-01-25T09:34:57;95135.69;;;12.77;36.74
30819;BME280;17546;42.674;23.284;2024-01-25T09:37:22;95163.78;;;12.96;36.92
30819;BME280;17546;42.674;23.284;2024-01-25T09:39:50;95124.53;;;12.72;36.95
30819;BME280;17546;42.674;23.284;2024-01-25T09:42:17;95126.38;;;13.03;36.36
30819;BME280;17546;42.674;23.284;2024-01-25T09:44:43;95112.66;;;12.71;36.79
30819;BME280;17546;42.674;23.284;2024-01-25T09:47:09;95144.34;;;13.08;36.67
30819;BME280;17546;42.674;23.284;2024-01-25T09:49:34;95108.00;;;12.34;37.56
30819;BME280;17546;42.674;23.284;2024-01-25T09:52:02;95099.03;;;12.79;37.12
30819;BME280;17546;42.674;23.284;2024-01-25T09:54:34;95122.00;;;12.74;37.40
30819;BME280;17546;42.674;23.284;2024-01-25T09:57:05;95099.25;;;12.70;37.42
30819;BME280;17546;42.674;23.284;2024-01-25T09:59:32;95117.72;;;12.73;37.17
30819;BME280;17546;42.674;23.284;2024-01-25T10:01:57;95121.69;;;12.49;38.13
30819;BME280;17546;42.674;23.284;2024-01-25T10:04:24;95113.69;;;12.74;37.23
30819;BME280;17546;42.674;23.284;2024-01-25T10:06:50;95086.63;;;12.69;37.10
30819;BME280;17546;42.674;23.284;2024-01-25T10:09:15;95090.16;;;12.64;37.57
30819;BME280;17546;42.674;23.284;2024-01-25T10:11:41;95089.97;;;13.01;36.83
30819;BME280;17546;42.674;23.284;2024-01-25T10:14:06;95087.41;;;12.80;37.47
30819;BME280;17546;42.674;23.284;2024-01-25T10:16:33;95066.72;;;13.10;36.58
30819;BME280;17546;42.674;23.284;2024-01-25T10:19:01;95077.59;;;12.96;37.26
30819;BME280;17546;42.674;23.284;2024-01-25T10:21:28;95101.81;;;12.85;37.47
30819;BME280;17546;42.674;23.284;2024-01-25T10:23:54;95107.13;;;12.82;38.06
30819;BME280;17546;42.674;23.284;2024-01-25T10:26:26;95097.78;;;13.14;37.47
30819;BME280;17546;42.674;23.284;2024-01-25T10:28:55;95062.03;;;12.33;38.44
30819;BME280;17546;42.674;23.284;2024-01-25T10:31:24;95063.38;;;12.72;37.91
30819;BME280;17546;42.674;23.284;2024-01-25T10:33:52;95106.91;;;12.97;37.97
30819;BME280;17546;42.674;23.284;2024-01-25T10:36:21;95090.44;;;12.94;38.19
30819;BME280;17546;42.674;23.284;2024-01-25T10:38:48;95092.75;;;13.07;37.73
30819;BME280;17546;42.674;23.284;2024-01-25T10:41:14;95097.06;;;12.96;37.98
30819;BME280;17546;42.674;23.284;2024-01-25T10:43:40;95083.50;;;12.33;38.73
30819;BME280;17546;42.674;23.284;2024-01-25T10:46:06;95064.69;;;12.93;37.98
30819;BME280;17546;42.674;23.284;2024-01-25T10:48:32;95087.66;;;12.94;38.11
30819;BME280;17546;42.674;23.284;2024-01-25T10:50:59;95017.66;;;12.73;37.78
30819;BME280;17546;42.674;23.284;2024-01-25T10:53:30;95074.06;;;13.41;37.06
30819;BME280;17546;42.674;23.284;2024-01-25T10:55:57;95067.75;;;13.35;36.60
30819;BME280;17546;42.674;23.284;2024-01-25T10:58:22;95064.41;;;13.14;36.61
30819;BME280;17546;42.674;23.284;2024-01-25T11:00:54;95053.28;;;13.02;37.22
30819;BME280;17546;42.674;23.284;2024-01-25T11:03:26;95047.25;;;13.21;36.47
30819;BME280;17546;42.674;23.284;2024-01-25T11:05:52;95043.94;;;13.34;36.42
30819;BME280;17546;42.674;23.284;2024-01-25T11:08:19;95026.50;;;12.66;36.79
30819;BME280;17546;42.674;23.284;2024-01-25T11:10:50;95018.66;;;13.15;36.73
30819;BME280;17546;42.674;23.284;2024-01-25T11:13:23;95001.22;;;12.52;36.80
30819;BME280;17546;42.674;23.284;2024-01-25T11:15:49;94993.63;;;13.15;36.22
30819;BME280;17546;42.674;23.284;2024-01-25T11:18:15;94996.94;;;13.30;35.78
30819;BME280;17546;42.674;23.284;2024-01-25T11:20:40;95025.63;;;13.78;35.73
30819;BME280;17546;42.674;23.284;2024-01-25T11:23:06;95011.25;;;13.68;36.24
30819;BME280;17546;42.674;23.284;2024-01-25T11:25:35;95015.81;;;13.60;35.33
30819;BME280;17546;42.674;23.284;2024-01-25T11:28:02;95018.91;;;13.22;35.69
30819;BME280;17546;42.674;23.284;2024-01-25T11:30:29;94978.44;;;13.16;35.52
30819;BME280;17546;42.674;23.284;2024-01-25T11:32:56;95016.59;;;13.55;35.29
30819;BME280;17546;42.674;23.284;2024-01-25T11:35:22;94983.75;;;13.25;35.77
30819;BME280;17546;42.674;23.284;2024-01-25T11:37:49;94990.56;;;13.47;35.76
30819;BME280;17546;42.674;23.284;2024-01-25T11:40:18;95014.59;;;13.16;35.64
30819;BME280;17546;42.674;23.284;2024-01-25T11:42:47;94976.69;;;13.07;35.72
30819;BME280;17546;42.674;23.284;2024-01-25T11:45:13;94977.22;;;12.66;36.34
30819;BME280;17546;42.674;23.284;2024-01-25T11:47:40;95005.78;;;12.95;36.33
30819;BME280;17546;42.674;23.284;2024-01-25T11:50:07;94992.63;;;13.07;36.42
30819;BME280;17546;42.674;23.284;2024-01-25T11:52:33;95020.19;;;13.21;36.04
30819;BME280;17546;42.674;23.284;2024-01-25T11:55:03;94980.75;;;12.67;36.35
30819;BME280;17546;42.674;23.284;2024-01-25T11:57:51;94976.44;;;12.54;36.60
30819;BME280;17546;42.674;23.284;2024-01-25T12:00:16;94972.94;;;12.82;36.60
30819;BME280;17546;42.674;23.284;2024-01-25T12:02:43;94956.47;;;13.07;36.05
30819;BME280;17546;42.674;23.284;2024-01-25T12:05:10;94991.88;;;12.89;35.91
30819;BME280;17546;42.674;23.284;2024-01-25T12:07:39;94993.16;;;12.77;35.93
30819;BME280;17546;42.674;23.284;2024-01-25T12:10:06;95038.41;;;12.94;35.91
30819;BME280;17546;42.674;23.284;2024-01-25T12:12:32;94990.63;;;12.73;36.26
30819;BME280;17546;42.674;23.284;2024-01-25T12:15:05;95010.84;;;12.96;36.25
30819;BME280;17546;42.674;23.284;2024-01-25T12:17:32;94978.75;;;12.61;36.22
30819;BME280;17546;42.674;23.284;2024-01-25T12:19:59;94972.66;;;12.52;36.68
30819;BME280;17546;42.674;23.284;2024-01-25T12:22:29;95001.25;;;12.86;36.15
30819;BME280;17546;42.674;23.284;2024-01-25T12:24:56;94992.38;;;13.05;36.42
30819;BME280;17546;42.674;23.284;2024-01-25T12:27:22;94990.09;;;13.31;35.35
30819;BME280;17546;42.674;23.284;2024-01-25T12:29:49;94994.91;;;12.63;36.21
30819;BME280;17546;42.674;23.284;2024-01-25T12:32:15;94997.44;;;12.84;36.17
30819;BME280;17546;42.674;23.284;2024-01-25T12:34:40;94980.97;;;13.14;36.11
30819;BME280;17546;42.674;23.284;2024-01-25T12:37:07;94993.88;;;13.11;36.38
30819;BME280;17546;42.674;23.284;2024-01-25T12:39:33;94985.56;;;12.72;36.78
30819;BME280;17546;42.674;23.284;2024-01-25T12:41:59;94940.06;;;12.97;36.03
30819;BME280;17546;42.674;23.284;2024-01-25T12:44:25;94975.97;;;13.01;35.68